sensor_id;sensor_type;location;lat;lon;timestamp;P1;durP1;ratioP1;P2;durP2;ratioP2
56321;SDS011;42227;6.376;-10.782;2023-07-08T00:00:50;21.85;;;13.27;;
56321;SDS011;42227;6.376;-10.782;2023-07-08T00:03:19;16.10;;;12.63;;
56321;SDS011;42227;6.376;-10.782;2023-07-08T00:05:50;17.40;;;12.30;;
56321;SDS011;42227;6.376;-10.782;2023-07-08T00:08:23;16.02;;;12.70;;
56321;SDS011;42227;6.376;-10.782;2023-07-08T00:10:51;18.85;;;12.13;;
56321;SDS011;42227;6.376;-10.782;2023-07-08T00:13:20;22.27;;;14.57;;
56321;SDS011;42227;6.376;-10.782;2023-07-08T00:15:48;18.38;;;14.38;;
56321;SDS011;42227;6.376;-10.782;2023-07-08T00:18:17;19.95;;;13.95;;
56321;SDS011;42227;6.376;-10.782;2023-07-08T00:20:47;19.35;;;13.60;;
56321;SDS011;42227;6.376;-10.782;2023-07-08T00:23:17;20.65;;;16.77;;
56321;SDS011;42227;6.376;-10.782;2023-07-08T00:25:45;23.38;;;17.15;;
56321;SDS011;42227;6.376;-10.782;2023-07-08T00:28:15;17.67;;;14.00;;
56321;SDS011;42227;6.376;-10.782;2023-07-08T00:33:15;15.13;;;12.05;;
56321;SDS011;42227;6.376;-10.782;2023-07-08T00:35:44;19.25;;;11.32;;
56321;SDS011;42227;6.376;-10.782;2023-07-08T00:38:14;15.45;;;10.95;;
56321;SDS011;42227;6.376;-10.782;2023-07-08T00:43:40;15.43;;;11.18;;
56321;SDS011;42227;6.376;-10.782;2023-07-08T00:51:35;16.90;;;12.45;;
56321;SDS011;42227;6.376;-10.782;2023-07-08T00:54:10;23.35;;;13.82;;
56321;SDS011;42227;6.376;-10.782;2023-07-08T01:01:59;39.40;;;24.35;;
56321;SDS011;42227;6.376;-10.782;2023-07-08T01:04:51;22.40;;;18.10;;
56321;SDS011;42227;6.376;-10.782;2023-07-08T01:07:29;21.42;;;17.45;;
56321;SDS011;42227;6.376;-10.782;2023-07-08T01:10:03;20.23;;;16.23;;
56321;SDS011;42227;6.376;-10.782;2023-07-08T01:12:39;24.95;;;15.32;;
56321;SDS011;42227;6.376;-10.782;2023-07-08T01:15:12;21.08;;;14.50;;
56321;SDS011;42227;6.376;-10.782;2023-07-08T01:17:42;19.75;;;13.88;;
56321;SDS011;42227;6.376;-10.782;2023-07-08T01:20:11;17.48;;;15.18;;
56321;SDS011;42227;6.376;-10.782;2023-07-08T01:22:41;16.25;;;11.93;;
56321;SDS011;42227;6.376;-10.782;2023-07-08T01:25:11;22.15;;;12.48;;
56321;SDS011;42227;6.376;-10.782;2023-07-08T01:27:42;25.17;;;16.65;;
56321;SDS011;42227;6.376;-10.782;2023-07-08T01:30:14;23.38;;;16.83;;
56321;SDS011;42227;6.376;-10.782;2023-07-08T01:32:45;26.23;;;16.77;;
56321;SDS011;42227;6.376;-10.782;2023-07-08T01:35:19;23.05;;;17.27;;
56321;SDS011;42227;6.376;-10.782;2023-07-08T01:37:51;20.63;;;16.48;;
56321;SDS011;42227;6.376;-10.782;2023-07-08T01:40:32;27.17;;;18.50;;
56321;SDS011;42227;6.376;-10.782;2023-07-08T01:43:02;30.35;;;19.33;;
56321;SDS011;42227;6.376;-10.782;2023-07-08T01:45:37;19.52;;;16.92;;
56321;SDS011;42227;6.376;-10.782;2023-07-08T01:48:08;21.63;;;16.58;;
56321;SDS011;42227;6.376;-10.782;2023-07-08T01:50:41;19.08;;;14.95;;
56321;SDS011;42227;6.376;-10.782;2023-07-08T01:53:19;18.58;;;13.63;;
56321;SDS011;42227;6.376;-10.782;2023-07-08T01:55:49;18.55;;;14.07;;
56321;SDS011;42227;6.376;-10.782;2023-07-08T01:58:18;26.35;;;17.92;;
56321;SDS011;42227;6.376;-10.782;2023-07-08T02:00:46;22.67;;;19.67;;
56321;SDS011;42227;6.376;-10.782;2023-07-08T02:03:15;24.08;;;19.42;;
56321;SDS011;42227;6.376;-10.782;2023-07-08T02:05:44;21.20;;;16.65;;
56321;SDS011;42227;6.376;-10.782;2023-07-08T02:08:13;25.33;;;18.75;;
56321;SDS011;42227;6.376;-10.782;2023-07-08T02:10:42;22.73;;;19.38;;
56321;SDS011;42227;6.376;-10.782;2023-07-08T02:13:13;24.77;;;17.93;;
56321;SDS011;42227;6.376;-10.782;2023-07-08T02:15:41;23.65;;;17.67;;
56321;SDS011;42227;6.376;-10.782;2023-07-08T02:18:10;24.42;;;17.92;;
56321;SDS011;42227;6.376;-10.782;2023-07-08T02:20:38;20.13;;;15.48;;
56321;SDS011;42227;6.376;-10.782;2023-07-08T02:23:07;23.45;;;17.73;;
56321;SDS011;42227;6.376;-10.782;2023-07-08T02:25:36;23.80;;;15.98;;
56321;SDS011;42227;6.376;-10.782;2023-07-08T02:28:04;21.88;;;16.08;;
56321;SDS011;42227;6.376;-10.782;2023-07-08T02:30:33;17.92;;;13.68;;
56321;SDS011;42227;6.376;-10.782;2023-07-08T02:33:02;23.13;;;15.82;;
56321;SDS011;42227;6.376;-10.782;2023-07-08T02:35:31;19.48;;;14.85;;
56321;SDS011;42227;6.376;-10.782;2023-07-08T02:37:59;17.38;;;12.60;;
56321;SDS011;42227;6.376;-10.782;2023-07-08T02:40:28;15.77;;;12.95;;
56321;SDS011;42227;6.376;-10.782;2023-07-08T02:42:56;18.38;;;15.45;;
56321;SDS011;42227;6.376;-10.782;2023-07-08T02:45:25;19.33;;;14.18;;
56321;SDS011;42227;6.376;-10.782;2023-07-08T02:47:53;27.13;;;14.38;;
56321;SDS011;42227;6.376;-10.782;2023-07-08T02:50:22;17.67;;;13.20;;
56321;SDS011;42227;6.376;-10.782;2023-07-08T02:52:50;20.27;;;14.27;;
56321;SDS011;42227;6.376;-10.782;2023-07-08T02:55:19;20.48;;;13.05;;
56321;SDS011;42227;6.376;-10.782;2023-07-08T02:57:48;23.63;;;12.40;;
56321;SDS011;42227;6.376;-10.782;2023-07-08T03:00:16;15.90;;;12.38;;
56321;SDS011;42227;6.376;-10.782;2023-07-08T03:02:45;18.48;;;12.55;;
56321;SDS011;42227;6.376;-10.782;2023-07-08T03:05:13;11.90;;;10.55;;
56321;SDS011;42227;6.376;-10.782;2023-07-08T03:07:42;28.88;;;12.98;;
56321;SDS011;42227;6.376;-10.782;2023-07-08T03:10:10;19.15;;;11.80;;
56321;SDS011;42227;6.376;-10.782;2023-07-08T03:12:39;13.43;;;11.85;;
56321;SDS011;42227;6.376;-10.782;2023-07-08T03:15:08;16.05;;;12.32;;
56321;SDS011;42227;6.376;-10.782;2023-07-08T03:17:37;16.50;;;12.57;;
56321;SDS011;42227;6.376;-10.782;2023-07-08T03:20:06;15.95;;;11.98;;
56321;SDS011;42227;6.376;-10.782;2023-07-08T03:22:36;22.92;;;13.05;;
56321;SDS011;42227;6.376;-10.782;2023-07-08T03:25:05;15.43;;;11.07;;
56321;SDS011;42227;6.376;-10.782;2023-07-08T03:27:35;14.10;;;12.68;;
56321;SDS011;42227;6.376;-10.782;2023-07-08T03:30:05;20.33;;;12.60;;
56321;SDS011;42227;6.376;-10.782;2023-07-08T03:32:34;16.17;;;11.80;;
56321;SDS011;42227;6.376;-10.782;2023-07-08T03:35:02;16.20;;;12.38;;
56321;SDS011;42227;6.376;-10.782;2023-07-08T03:37:31;22.77;;;13.70;;
56321;SDS011;42227;6.376;-10.782;2023-07-08T03:39:59;25.33;;;13.75;;
56321;SDS011;42227;6.376;-10.782;2023-07-08T03:42:28;16.63;;;12.07;;
56321;SDS011;42227;6.376;-10.782;2023-07-08T03:44:56;24.58;;;13.23;;
56321;SDS011;42227;6.376;-10.782;2023-07-08T03:47:25;15.68;;;13.00;;
56321;SDS011;42227;6.376;-10.782;2023-07-08T03:49:54;18.63;;;11.88;;
56321;SDS011;42227;6.376;-10.782;2023-07-08T03:52:22;17.75;;;13.13;;
56321;SDS011;42227;6.376;-10.782;2023-07-08T03:54:51;23.35;;;12.73;;
56321;SDS011;42227;6.376;-10.782;2023-07-08T03:57:21;16.02;;;11.50;;
56321;SDS011;42227;6.376;-10.782;2023-07-08T03:59:49;20.73;;;14.35;;
56321;SDS011;42227;6.376;-10.782;2023-07-08T04:02:18;18.25;;;12.18;;
56321;SDS011;42227;6.376;-10.782;2023-07-08T04:04:47;19.45;;;13.25;;
56321;SDS011;42227;6.376;-10.782;2023-07-08T04:07:15;16.05;;;12.35;;
56321;SDS011;42227;6.376;-10.782;2023-07-08T04:09:44;16.13;;;13.80;;
56321;SDS011;42227;6.376;-10.782;2023-07-08T04:12:14;17.85;;;12.25;;
56321;SDS011;42227;6.376;-10.782;2023-07-08T04:14:42;16.67;;;12.75;;
56321;SDS011;42227;6.376;-10.782;2023-07-08T04:17:10;19.25;;;14.73;;
56321;SDS011;42227;6.376;-10.782;2023-07-08T04:19:40;23.75;;;15.55;;
56321;SDS011;42227;6.376;-10.782;2023-07-08T04:22:08;16.75;;;13.00;;
56321;SDS011;42227;6.376;-10.782;2023-07-08T04:24:38;19.45;;;14.65;;
56321;SDS011;42227;6.376;-10.782;2023-07-08T04:27:08;25.40;;;14.80;;
56321;SDS011;42227;6.376;-10.782;2023-07-08T04:29:44;17.25;;;14.10;;
56321;SDS011;42227;6.376;-10.782;2023-07-08T04:32:13;17.38;;;14.68;;
56321;SDS011;42227;6.376;-10.782;2023-07-08T04:34:41;17.67;;;14.23;;
56321;SDS011;42227;6.376;-10.782;2023-07-08T04:37:11;16.77;;;12.80;;
56321;SDS011;42227;6.376;-10.782;2023-07-08T04:39:39;28.52;;;15.35;;
56321;SDS011;42227;6.376;-10.782;2023-07-08T04:42:08;26.67;;;15.05;;
56321;SDS011;42227;6.376;-10.782;2023-07-08T04:44:36;19.73;;;14.77;;
56321;SDS011;42227;6.376;-10.782;2023-07-08T04:47:05;15.63;;;13.32;;
56321;SDS011;42227;6.376;-10.782;2023-07-08T04:49:34;20.92;;;14.55;;
56321;SDS011;42227;6.376;-10.782;2023-07-08T04:52:03;18.55;;;13.65;;
56321;SDS011;42227;6.376;-10.782;2023-07-08T04:54:32;24.90;;;15.23;;
56321;SDS011;42227;6.376;-10.782;2023-07-08T04:57:00;19.70;;;12.27;;
56321;SDS011;42227;6.376;-10.782;2023-07-08T04:59:29;29.45;;;13.63;;
56321;SDS011;42227;6.376;-10.782;2023-07-08T05:01:57;26.38;;;16.40;;
56321;SDS011;42227;6.376;-10.782;2023-07-08T05:04:26;16.83;;;13.35;;
56321;SDS011;42227;6.376;-10.782;2023-07-08T05:06:54;18.10;;;14.18;;
56321;SDS011;42227;6.376;-10.782;2023-07-08T05:09:23;24.48;;;14.82;;
56321;SDS011;42227;6.376;-10.782;2023-07-08T05:11:51;16.38;;;14.57;;
56321;SDS011;42227;6.376;-10.782;2023-07-08T05:14:20;20.88;;;14.32;;
56321;SDS011;42227;6.376;-10.782;2023-07-08T05:16:48;22.20;;;14.63;;
56321;SDS011;42227;6.376;-10.782;2023-07-08T05:19:17;21.05;;;15.35;;
56321;SDS011;42227;6.376;-10.782;2023-07-08T05:21:45;20.13;;;14.25;;
56321;SDS011;42227;6.376;-10.782;2023-07-08T05:24:14;22.65;;;14.75;;
56321;SDS011;42227;6.376;-10.782;2023-07-08T05:26:42;18.95;;;13.35;;
56321;SDS011;42227;6.376;-10.782;2023-07-08T05:29:11;23.40;;;14.77;;
56321;SDS011;42227;6.376;-10.782;2023-07-08T05:31:39;16.95;;;15.13;;
56321;SDS011;42227;6.376;-10.782;2023-07-08T05:34:14;16.67;;;13.85;;
56321;SDS011;42227;6.376;-10.782;2023-07-08T05:36:43;24.45;;;15.80;;
56321;SDS011;42227;6.376;-10.782;2023-07-08T05:39:12;18.55;;;16.38;;
56321;SDS011;42227;6.376;-10.782;2023-07-08T05:41:40;23.30;;;16.75;;
56321;SDS011;42227;6.376;-10.782;2023-07-08T05:44:09;23.67;;;17.08;;
56321;SDS011;42227;6.376;-10.782;2023-07-08T05:46:37;17.08;;;14.98;;
56321;SDS011;42227;6.376;-10.782;2023-07-08T05:49:06;20.83;;;16.67;;
56321;SDS011;42227;6.376;-10.782;2023-07-08T05:51:35;17.40;;;14.77;;
56321;SDS011;42227;6.376;-10.782;2023-07-08T05:54:04;23.80;;;15.05;;
56321;SDS011;42227;6.376;-10.782;2023-07-08T05:56:33;20.67;;;15.68;;
56321;SDS011;42227;6.376;-10.782;2023-07-08T05:59:01;19.88;;;15.70;;
56321;SDS011;42227;6.376;-10.782;2023-07-08T06:01:31;18.23;;;14.90;;
56321;SDS011;42227;6.376;-10.782;2023-07-08T06:03:59;24.23;;;15.70;;
56321;SDS011;42227;6.376;-10.782;2023-07-08T06:06:28;19.20;;;15.85;;
56321;SDS011;42227;6.376;-10.782;2023-07-08T06:08:57;17.45;;;14.23;;
56321;SDS011;42227;6.376;-10.782;2023-07-08T06:11:25;26.25;;;15.23;;
56321;SDS011;42227;6.376;-10.782;2023-07-08T06:13:56;18.25;;;13.48;;
56321;SDS011;42227;6.376;-10.782;2023-07-08T06:16:25;23.08;;;13.68;;
56321;SDS011;42227;6.376;-10.782;2023-07-08T06:19:07;21.30;;;14.05;;
56321;SDS011;42227;6.376;-10.782;2023-07-08T06:21:36;20.13;;;13.95;;
56321;SDS011;42227;6.376;-10.782;2023-07-08T06:24:05;20.38;;;14.15;;
56321;SDS011;42227;6.376;-10.782;2023-07-08T06:26:34;17.88;;;13.52;;
56321;SDS011;42227;6.376;-10.782;2023-07-08T06:29:03;19.70;;;15.38;;
56321;SDS011;42227;6.376;-10.782;2023-07-08T06:31:32;18.30;;;15.02;;
56321;SDS011;42227;6.376;-10.782;2023-07-08T06:34:00;25.67;;;16.42;;
56321;SDS011;42227;6.376;-10.782;2023-07-08T06:36:29;26.98;;;17.13;;
56321;SDS011;42227;6.376;-10.782;2023-07-08T06:38:58;24.05;;;16.33;;
56321;SDS011;42227;6.376;-10.782;2023-07-08T06:41:27;20.23;;;15.30;;
56321;SDS011;42227;6.376;-10.782;2023-07-08T06:43:55;23.52;;;15.18;;
56321;SDS011;42227;6.376;-10.782;2023-07-08T06:46:27;21.48;;;14.00;;
56321;SDS011;42227;6.376;-10.782;2023-07-08T06:48:56;23.80;;;14.90;;
56321;SDS011;42227;6.376;-10.782;2023-07-08T06:51:24;20.13;;;14.82;;
56321;SDS011;42227;6.376;-10.782;2023-07-08T06:53:52;18.33;;;14.10;;
56321;SDS011;42227;6.376;-10.782;2023-07-08T06:56:21;21.08;;;15.20;;
56321;SDS011;42227;6.376;-10.782;2023-07-08T06:58:49;21.73;;;15.63;;
56321;SDS011;42227;6.376;-10.782;2023-07-08T07:01:18;20.42;;;15.90;;
56321;SDS011;42227;6.376;-10.782;2023-07-08T07:03:47;21.10;;;14.90;;
56321;SDS011;42227;6.376;-10.782;2023-07-08T07:06:15;26.35;;;15.18;;
56321;SDS011;42227;6.376;-10.782;2023-07-08T07:08:44;21.73;;;14.00;;
56321;SDS011;42227;6.376;-10.782;2023-07-08T07:11:12;15.77;;;12.30;;
56321;SDS011;42227;6.376;-10.782;2023-07-08T07:13:41;18.20;;;13.48;;
56321;SDS011;42227;6.376;-10.782;2023-07-08T07:16:09;17.98;;;13.50;;
56321;SDS011;42227;6.376;-10.782;2023-07-08T07:18:38;16.63;;;12.35;;
56321;SDS011;42227;6.376;-10.782;2023-07-08T07:21:06;17.85;;;12.68;;
56321;SDS011;42227;6.376;-10.782;2023-07-08T07:23:35;21.80;;;13.43;;
56321;SDS011;42227;6.376;-10.782;2023-07-08T07:26:03;18.38;;;13.07;;
56321;SDS011;42227;6.376;-10.782;2023-07-08T07:28:32;28.83;;;14.82;;
56321;SDS011;42227;6.376;-10.782;2023-07-08T07:31:01;18.17;;;14.40;;
56321;SDS011;42227;6.376;-10.782;2023-07-08T07:33:30;16.73;;;11.93;;
56321;SDS011;42227;6.376;-10.782;2023-07-08T07:35:59;17.98;;;13.15;;
56321;SDS011;42227;6.376;-10.782;2023-07-08T07:38:29;16.13;;;12.90;;
56321;SDS011;42227;6.376;-10.782;2023-07-08T07:41:00;17.90;;;13.20;;
56321;SDS011;42227;6.376;-10.782;2023-07-08T07:43:30;18.52;;;13.48;;
56321;SDS011;42227;6.376;-10.782;2023-07-08T07:45:58;23.15;;;13.82;;
56321;SDS011;42227;6.376;-10.782;2023-07-08T07:48:27;18.00;;;11.85;;
56321;SDS011;42227;6.376;-10.782;2023-07-08T07:50:56;15.95;;;11.88;;
56321;SDS011;42227;6.376;-10.782;2023-07-08T07:53:25;15.38;;;11.73;;
56321;SDS011;42227;6.376;-10.782;2023-07-08T07:56:00;12.48;;;11.18;;
56321;SDS011;42227;6.376;-10.782;2023-07-08T07:58:30;15.75;;;11.25;;
56321;SDS011;42227;6.376;-10.782;2023-07-08T08:00:59;11.05;;;9.82;;
56321;SDS011;42227;6.376;-10.782;2023-07-08T08:03:29;20.25;;;12.07;;
56321;SDS011;42227;6.376;-10.782;2023-07-08T08:05:58;16.17;;;12.20;;
56321;SDS011;42227;6.376;-10.782;2023-07-08T08:08:27;20.17;;;13.00;;
56321;SDS011;42227;6.376;-10.782;2023-07-08T08:10:56;16.38;;;12.68;;
56321;SDS011;42227;6.376;-10.782;2023-07-08T08:13:24;29.27;;;14.77;;
56321;SDS011;42227;6.376;-10.782;2023-07-08T08:18:58;20.00;;;12.82;;
56321;SDS011;42227;6.376;-10.782;2023-07-08T08:21:26;17.77;;;14.00;;
56321;SDS011;42227;6.376;-10.782;2023-07-08T08:23:56;19.63;;;15.32;;
56321;SDS011;42227;6.376;-10.782;2023-07-08T08:26:24;24.95;;;14.48;;
56321;SDS011;42227;6.376;-10.782;2023-07-08T08:28:53;26.80;;;17.00;;
56321;SDS011;42227;6.376;-10.782;2023-07-08T08:31:23;47.30;;;27.60;;
56321;SDS011;42227;6.376;-10.782;2023-07-08T08:33:52;18.95;;;12.05;;
56321;SDS011;42227;6.376;-10.782;2023-07-08T08:36:21;12.02;;;10.82;;
56321;SDS011;42227;6.376;-10.782;2023-07-08T08:38:49;11.18;;;9.40;;
56321;SDS011;42227;6.376;-10.782;2023-07-08T08:41:30;21.17;;;16.10;;
56321;SDS011;42227;6.376;-10.782;2023-07-08T08:44:00;12.38;;;9.43;;
56321;SDS011;42227;6.376;-10.782;2023-07-08T08:46:37;9.80;;;7.78;;
56321;SDS011;42227;6.376;-10.782;2023-07-08T08:49:37;11.05;;;6.95;;
56321;SDS011;42227;6.376;-10.782;2023-07-08T08:52:14;11.52;;;8.48;;
56321;SDS011;42227;6.376;-10.782;2023-07-08T08:54:42;10.32;;;8.95;;
56321;SDS011;42227;6.376;-10.782;2023-07-08T09:05:15;13.90;;;8.35;;
56321;SDS011;42227;6.376;-10.782;2023-07-08T09:07:56;13.35;;;8.20;;
56321;SDS011;42227;6.376;-10.782;2023-07-08T09:13:41;10.02;;;8.55;;
56321;SDS011;42227;6.376;-10.782;2023-07-08T09:27:10;8.75;;;7.25;;
56321;SDS011;42227;6.376;-10.782;2023-07-08T09:29:39;14.40;;;8.20;;
56321;SDS011;42227;6.376;-10.782;2023-07-08T09:34:51;11.30;;;7.93;;
56321;SDS011;42227;6.376;-10.782;2023-07-08T09:37:36;13.27;;;9.65;;
56321;SDS011;42227;6.376;-10.782;2023-07-08T09:40:42;9.63;;;7.07;;
56321;SDS011;42227;6.376;-10.782;2023-07-08T09:45:58;14.43;;;8.18;;
56321;SDS011;42227;6.376;-10.782;2023-07-08T09:48:28;15.57;;;11.57;;
56321;SDS011;42227;6.376;-10.782;2023-07-08T09:51:00;9.82;;;7.40;;
56321;SDS011;42227;6.376;-10.782;2023-07-08T09:53:30;14.77;;;8.25;;
56321;SDS011;42227;6.376;-10.782;2023-07-08T09:56:02;13.98;;;6.72;;
56321;SDS011;42227;6.376;-10.782;2023-07-08T09:58:33;7.18;;;6.45;;
56321;SDS011;42227;6.376;-10.782;2023-07-08T10:01:09;9.50;;;7.32;;
56321;SDS011;42227;6.376;-10.782;2023-07-08T10:03:46;12.20;;;7.25;;
56321;SDS011;42227;6.376;-10.782;2023-07-08T10:06:24;9.60;;;7.40;;
56321;SDS011;42227;6.376;-10.782;2023-07-08T10:09:02;7.82;;;5.97;;
56321;SDS011;42227;6.376;-10.782;2023-07-08T10:11:48;10.25;;;6.47;;
56321;SDS011;42227;6.376;-10.782;2023-07-08T10:17:09;9.75;;;7.47;;
56321;SDS011;42227;6.376;-10.782;2023-07-08T10:19:45;13.88;;;7.55;;
56321;SDS011;42227;6.376;-10.782;2023-07-08T10:25:41;8.50;;;7.03;;
56321;SDS011;42227;6.376;-10.782;2023-07-08T10:31:25;10.52;;;7.63;;
56321;SDS011;42227;6.376;-10.782;2023-07-08T10:34:29;9.90;;;7.43;;
56321;SDS011;42227;6.376;-10.782;2023-07-08T10:51:47;10.48;;;6.53;;
56321;SDS011;42227;6.376;-10.782;2023-07-08T11:00:39;11.40;;;7.22;;
56321;SDS011;42227;6.376;-10.782;2023-07-08T11:03:26;9.20;;;6.90;;
56321;SDS011;42227;6.376;-10.782;2023-07-08T11:06:16;10.30;;;7.88;;
56321;SDS011;42227;6.376;-10.782;2023-07-08T11:09:00;9.07;;;6.20;;
56321;SDS011;42227;6.376;-10.782;2023-07-08T11:11:37;13.25;;;6.75;;
56321;SDS011;42227;6.376;-10.782;2023-07-08T11:14:15;7.47;;;6.40;;
56321;SDS011;42227;6.376;-10.782;2023-07-08T11:16:52;11.95;;;7.80;;
56321;SDS011;42227;6.376;-10.782;2023-07-08T11:19:37;10.55;;;8.27;;
56321;SDS011;42227;6.376;-10.782;2023-07-08T11:22:10;7.43;;;6.57;;
56321;SDS011;42227;6.376;-10.782;2023-07-08T11:24:51;10.13;;;6.70;;
56321;SDS011;42227;6.376;-10.782;2023-07-08T11:27:31;10.05;;;7.03;;
56321;SDS011;42227;6.376;-10.782;2023-07-08T11:30:12;9.48;;;6.45;;
56321;SDS011;42227;6.376;-10.782;2023-07-08T11:32:44;11.23;;;7.63;;
56321;SDS011;42227;6.376;-10.782;2023-07-08T11:38:16;8.18;;;6.82;;
56321;SDS011;42227;6.376;-10.782;2023-07-08T11:41:33;7.40;;;6.35;;
56321;SDS011;42227;6.376;-10.782;2023-07-08T11:46:28;8.88;;;6.85;;
56321;SDS011;42227;6.376;-10.782;2023-07-08T11:49:03;10.93;;;6.30;;
56321;SDS011;42227;6.376;-10.782;2023-07-08T11:51:43;7.35;;;6.53;;
56321;SDS011;42227;6.376;-10.782;2023-07-08T11:54:14;8.45;;;6.18;;
56321;SDS011;42227;6.376;-10.782;2023-07-08T12:05:00;16.08;;;6.45;;
56321;SDS011;42227;6.376;-10.782;2023-07-08T12:10:25;10.45;;;7.32;;
56321;SDS011;42227;6.376;-10.782;2023-07-08T12:13:00;11.68;;;7.15;;
56321;SDS011;42227;6.376;-10.782;2023-07-08T12:15:31;8.07;;;6.25;;
56321;SDS011;42227;6.376;-10.782;2023-07-08T12:18:04;12.00;;;7.15;;
56321;SDS011;42227;6.376;-10.782;2023-07-08T12:20:43;11.93;;;7.68;;
56321;SDS011;42227;6.376;-10.782;2023-07-08T12:25:45;8.40;;;6.40;;
56321;SDS011;42227;6.376;-10.782;2023-07-08T12:28:14;9.55;;;6.00;;
56321;SDS011;42227;6.376;-10.782;2023-07-08T12:30:44;12.45;;;6.60;;
56321;SDS011;42227;6.376;-10.782;2023-07-08T12:33:28;8.25;;;6.65;;
56321;SDS011;42227;6.376;-10.782;2023-07-08T12:36:01;13.35;;;5.53;;
56321;SDS011;42227;6.376;-10.782;2023-07-08T12:38:31;6.28;;;5.43;;
56321;SDS011;42227;6.376;-10.782;2023-07-08T12:41:01;10.77;;;7.80;;
56321;SDS011;42227;6.376;-10.782;2023-07-08T12:43:36;9.48;;;6.40;;
56321;SDS011;42227;6.376;-10.782;2023-07-08T12:46:04;8.25;;;5.55;;
56321;SDS011;42227;6.376;-10.782;2023-07-08T12:51:18;9.10;;;6.70;;
56321;SDS011;42227;6.376;-10.782;2023-07-08T12:53:51;8.70;;;7.13;;
56321;SDS011;42227;6.376;-10.782;2023-07-08T12:56:21;12.07;;;7.75;;
56321;SDS011;42227;6.376;-10.782;2023-07-08T12:58:56;11.45;;;7.03;;
56321;SDS011;42227;6.376;-10.782;2023-07-08T13:01:29;11.63;;;6.50;;
56321;SDS011;42227;6.376;-10.782;2023-07-08T13:04:01;8.70;;;5.82;;
56321;SDS011;42227;6.376;-10.782;2023-07-08T13:06:33;6.22;;;5.28;;
56321;SDS011;42227;6.376;-10.782;2023-07-08T13:09:07;12.38;;;6.22;;
56321;SDS011;42227;6.376;-10.782;2023-07-08T13:11:51;8.43;;;6.90;;
56321;SDS011;42227;6.376;-10.782;2023-07-08T13:14:22;11.10;;;6.40;;
56321;SDS011;42227;6.376;-10.782;2023-07-08T13:16:52;10.93;;;6.03;;
56321;SDS011;42227;6.376;-10.782;2023-07-08T13:19:21;7.13;;;5.35;;
56321;SDS011;42227;6.376;-10.782;2023-07-08T13:21:50;7.57;;;6.13;;
56321;SDS011;42227;6.376;-10.782;2023-07-08T13:24:20;10.13;;;5.80;;
56321;SDS011;42227;6.376;-10.782;2023-07-08T13:26:49;8.43;;;4.88;;
56321;SDS011;42227;6.376;-10.782;2023-07-08T13:29:18;10.70;;;6.63;;
56321;SDS011;42227;6.376;-10.782;2023-07-08T13:31:53;12.23;;;7.07;;
56321;SDS011;42227;6.376;-10.782;2023-07-08T13:34:24;10.43;;;6.32;;
56321;SDS011;42227;6.376;-10.782;2023-07-08T13:36:53;12.95;;;6.63;;
56321;SDS011;42227;6.376;-10.782;2023-07-08T13:39:32;8.68;;;5.82;;
56321;SDS011;42227;6.376;-10.782;2023-07-08T13:42:01;10.88;;;5.75;;
56321;SDS011;42227;6.376;-10.782;2023-07-08T13:44:30;11.50;;;6.28;;
56321;SDS011;42227;6.376;-10.782;2023-07-08T13:46:59;10.60;;;6.50;;
56321;SDS011;42227;6.376;-10.782;2023-07-08T13:49:30;7.57;;;5.72;;
56321;SDS011;42227;6.376;-10.782;2023-07-08T13:54:53;10.25;;;6.10;;
56321;SDS011;42227;6.376;-10.782;2023-07-08T13:57:31;9.70;;;5.75;;
56321;SDS011;42227;6.376;-10.782;2023-07-08T14:00:02;20.10;;;6.22;;
56321;SDS011;42227;6.376;-10.782;2023-07-08T14:02:37;7.60;;;5.75;;
56321;SDS011;42227;6.376;-10.782;2023-07-08T14:05:13;7.43;;;5.07;;
56321;SDS011;42227;6.376;-10.782;2023-07-08T14:07:41;11.23;;;5.03;;
56321;SDS011;42227;6.376;-10.782;2023-07-08T14:10:13;18.92;;;9.43;;
56321;SDS011;42227;6.376;-10.782;2023-07-08T14:12:42;14.50;;;6.93;;
56321;SDS011;42227;6.376;-10.782;2023-07-08T14:15:10;10.88;;;5.88;;
56321;SDS011;42227;6.376;-10.782;2023-07-08T14:17:39;10.40;;;5.85;;
56321;SDS011;42227;6.376;-10.782;2023-07-08T14:20:10;10.57;;;5.97;;
56321;SDS011;42227;6.376;-10.782;2023-07-08T14:22:42;10.20;;;6.30;;
56321;SDS011;42227;6.376;-10.782;2023-07-08T14:25:17;8.82;;;5.45;;
56321;SDS011;42227;6.376;-10.782;2023-07-08T14:27:46;14.38;;;6.20;;
56321;SDS011;42227;6.376;-10.782;2023-07-08T14:30:15;16.35;;;7.22;;
56321;SDS011;42227;6.376;-10.782;2023-07-08T14:32:44;10.80;;;6.35;;
56321;SDS011;42227;6.376;-10.782;2023-07-08T14:37:52;8.10;;;4.68;;
56321;SDS011;42227;6.376;-10.782;2023-07-08T14:43:15;10.10;;;7.07;;
56321;SDS011;42227;6.376;-10.782;2023-07-08T14:45:49;11.55;;;6.78;;
56321;SDS011;42227;6.376;-10.782;2023-07-08T14:48:21;7.28;;;6.07;;
56321;SDS011;42227;6.376;-10.782;2023-07-08T14:50:53;12.00;;;5.88;;
56321;SDS011;42227;6.376;-10.782;2023-07-08T14:53:21;20.27;;;6.85;;
56321;SDS011;42227;6.376;-10.782;2023-07-08T14:55:50;18.45;;;7.13;;
56321;SDS011;42227;6.376;-10.782;2023-07-08T14:58:31;8.93;;;5.68;;
56321;SDS011;42227;6.376;-10.782;2023-07-08T15:01:01;9.50;;;6.45;;
56321;SDS011;42227;6.376;-10.782;2023-07-08T15:03:46;9.65;;;5.70;;
56321;SDS011;42227;6.376;-10.782;2023-07-08T15:06:15;7.70;;;6.22;;
56321;SDS011;42227;6.376;-10.782;2023-07-08T15:08:43;10.95;;;6.80;;
56321;SDS011;42227;6.376;-10.782;2023-07-08T15:11:12;12.38;;;7.65;;
56321;SDS011;42227;6.376;-10.782;2023-07-08T15:13:41;10.27;;;7.10;;
56321;SDS011;42227;6.376;-10.782;2023-07-08T15:16:15;8.43;;;6.80;;
56321;SDS011;42227;6.376;-10.782;2023-07-08T15:18:44;10.10;;;7.10;;
56321;SDS011;42227;6.376;-10.782;2023-07-08T15:21:13;15.70;;;9.30;;
56321;SDS011;42227;6.376;-10.782;2023-07-08T15:23:43;20.42;;;8.85;;
56321;SDS011;42227;6.376;-10.782;2023-07-08T15:26:12;15.40;;;10.15;;
56321;SDS011;42227;6.376;-10.782;2023-07-08T15:28:46;20.88;;;9.75;;
56321;SDS011;42227;6.376;-10.782;2023-07-08T15:31:18;8.98;;;6.30;;
56321;SDS011;42227;6.376;-10.782;2023-07-08T15:33:57;18.67;;;6.93;;
56321;SDS011;42227;6.376;-10.782;2023-07-08T15:36:25;9.85;;;6.82;;
56321;SDS011;42227;6.376;-10.782;2023-07-08T15:38:54;8.55;;;6.95;;
56321;SDS011;42227;6.376;-10.782;2023-07-08T15:41:23;12.63;;;7.95;;
56321;SDS011;42227;6.376;-10.782;2023-07-08T15:43:54;8.02;;;5.45;;
56321;SDS011;42227;6.376;-10.782;2023-07-08T15:46:40;10.38;;;6.28;;
56321;SDS011;42227;6.376;-10.782;2023-07-08T15:49:19;18.92;;;10.95;;
56321;SDS011;42227;6.376;-10.782;2023-07-08T15:51:49;12.35;;;8.45;;
56321;SDS011;42227;6.376;-10.782;2023-07-08T15:54:18;13.77;;;8.25;;
56321;SDS011;42227;6.376;-10.782;2023-07-08T15:56:52;20.10;;;9.45;;
56321;SDS011;42227;6.376;-10.782;2023-07-08T15:59:24;19.15;;;8.63;;
56321;SDS011;42227;6.376;-10.782;2023-07-08T16:01:57;11.05;;;7.45;;
56321;SDS011;42227;6.376;-10.782;2023-07-08T16:04:41;14.70;;;6.18;;
56321;SDS011;42227;6.376;-10.782;2023-07-08T16:07:14;15.57;;;7.30;;
56321;SDS011;42227;6.376;-10.782;2023-07-08T16:09:42;10.77;;;7.95;;
56321;SDS011;42227;6.376;-10.782;2023-07-08T16:12:16;19.10;;;9.20;;
56321;SDS011;42227;6.376;-10.782;2023-07-08T16:14:49;14.90;;;9.90;;
56321;SDS011;42227;6.376;-10.782;2023-07-08T16:17:17;27.65;;;11.40;;
56321;SDS011;42227;6.376;-10.782;2023-07-08T16:19:46;19.17;;;12.45;;
56321;SDS011;42227;6.376;-10.782;2023-07-08T16:22:24;24.60;;;12.65;;
56321;SDS011;42227;6.376;-10.782;2023-07-08T16:24:53;14.45;;;10.63;;
56321;SDS011;42227;6.376;-10.782;2023-07-08T16:27:32;23.98;;;10.48;;